Time;durP1;ratioP1;P1;durP2;ratioP2;P2;SDS_P1;SDS_P2;PMS_P1;PMS_P2;Temp;Humidity;BMP_temperature;BMP_pressure;BME280_temperature;BME280_humidity;BME280_pressure;Samples;Min_cycle;Max_cycle;Signal;HPM_P1;HPM_P2
2022/10/17 00:00:12;;;;;;;6.82;4.28;;;;;;;;;;5015144;28;20398;-82
2022/10/17 00:02:37;;;;;;;7.03;4.53;;;;;;;;;;5015246;28;20026;-82
2022/10/17 00:05:02;;;;;;;7.95;4.70;;;;;;;;;;5018326;28;20040;-82
2022/10/17 00:07:29;;;;;;;6.32;4.43;;;;;;;;;;5016074;28;20041;-82
2022/10/17 00:09:54;;;;;;;5.35;3.92;;;;;;;;;;5015267;28;20025;-82
2022/10/17 00:12:20;;;;;;;6.28;4.50;;;;;;;;;;5017424;28;20091;-82
2022/10/17 00:14:45;;;;;;;9.52;4.57;;;;;;;;;;5014871;28;20022;-82
2022/10/17 00:17:11;;;;;;;6.90;4.18;;;;;;;;;;5020580;28;20068;-82
2022/10/17 00:19:36;;;;;;;6.38;4.53;;;;;;;;;;5012758;28;20403;-83
2022/10/17 00:22:01;;;;;;;6.63;4.70;;;;;;;;;;5014160;28;20060;-83
2022/10/17 00:24:30;;;;;;;6.95;4.68;;;;;;;;;;5012033;28;20087;-83
2022/10/17 00:26:55;;;;;;;6.28;4.70;;;;;;;;;;5014156;28;20032;-82
2022/10/17 00:29:21;;;;;;;9.10;5.05;;;;;;;;;;5010937;28;20041;-82
2022/10/17 00:31:46;;;;;;;6.35;4.75;;;;;;;;;;5009509;28;20052;-82
2022/10/17 00:34:11;;;;;;;6.97;4.78;;;;;;;;;;5011852;28;20784;-83
2022/10/17 00:36:37;;;;;;;6.57;4.82;;;;;;;;;;5019842;28;20083;-82
2022/10/17 00:39:03;;;;;;;6.63;5.00;;;;;;;;;;5009998;28;20512;-82
2022/10/17 00:41:31;;;;;;;6.40;4.40;;;;;;;;;;5018231;28;20032;-82
2022/10/17 00:44:01;;;;;;;6.32;4.78;;;;;;;;;;5015102;28;20458;-82
2022/10/17 00:46:30;;;;;;;6.88;5.13;;;;;;;;;;5021143;28;20415;-82
2022/10/17 00:48:57;;;;;;;7.68;4.65;;;;;;;;;;5021085;28;20025;-82
2022/10/17 00:51:44;;;;;;;6.43;4.93;;;;;;;;;;5027901;28;20522;-82
2022/10/17 00:54:12;;;;;;;7.28;4.90;;;;;;;;;;5016697;28;20029;-82
2022/10/17 00:56:39;;;;;;;6.90;4.78;;;;;;;;;;5023105;28;20462;-82
2022/10/17 00:59:07;;;;;;;8.07;5.30;;;;;;;;;;5016683;28;20034;-83
2022/10/17 01:01:33;;;;;;;6.93;5.53;;;;;;;;;;5021664;28;20139;-82
2022/10/17 01:03:59;;;;;;;8.63;4.82;;;;;;;;;;5018050;28;20116;-82
2022/10/17 01:06:24;;;;;;;7.90;4.88;;;;;;;;;;5019061;28;20037;-82
2022/10/17 01:08:50;;;;;;;6.68;4.97;;;;;;;;;;5018663;28;20625;-82
2022/10/17 01:11:48;;;;;;;7.22;5.07;;;;;;;;;;5026429;28;20033;-83
2022/10/17 01:14:41;;;;;;;7.85;5.35;;;;;;;;;;5035102;28;20471;-82
2022/10/17 01:17:30;;;;;;;7.10;5.20;;;;;;;;;;5015867;28;20037;-82
2022/10/17 01:20:04;;;;;;;6.90;5.32;;;;;;;;;;5016853;28;20120;-82
2022/10/17 01:23:09;;;;;;;7.28;5.03;;;;;;;;;;5013893;28;20470;-82
2022/10/17 01:25:50;;;;;;;9.35;5.70;;;;;;;;;;5016876;28;20127;-82
2022/10/17 01:28:46;;;;;;;7.65;5.40;;;;;;;;;;5015918;28;20112;-82
2022/10/17 01:31:21;;;;;;;7.43;5.47;;;;;;;;;;4995888;28;20041;-83
2022/10/17 01:33:58;;;;;;;7.10;5.05;;;;;;;;;;5015905;28;20393;-82
2022/10/17 01:36:48;;;;;;;7.90;5.28;;;;;;;;;;5014915;28;20041;-82
2022/10/17 01:39:38;;;;;;;8.23;5.40;;;;;;;;;;5021236;28;20080;-82
2022/10/17 01:42:19;;;;;;;8.35;5.45;;;;;;;;;;5016777;28;20033;-82
2022/10/17 01:44:54;;;;;;;8.98;5.20;;;;;;;;;;5015404;28;20025;-82
2022/10/17 01:47:25;;;;;;;9.10;5.30;;;;;;;;;;5017932;28;20030;-82
2022/10/17 01:49:52;;;;;;;12.20;5.65;;;;;;;;;;5021263;28;20025;-82
2022/10/17 01:52:28;;;;;;;9.23;5.70;;;;;;;;;;5020092;28;20033;-82
2022/10/17 01:54:59;;;;;;;7.25;5.13;;;;;;;;;;5014818;28;20029;-82
2022/10/17 01:57:38;;;;;;;10.27;6.20;;;;;;;;;;5017057;28;20473;-83
2022/10/17 02:00:10;;;;;;;7.60;5.50;;;;;;;;;;5016344;28;20036;-83
2022/10/17 02:02:36;;;;;;;7.15;5.35;;;;;;;;;;5015868;28;20401;-82
2022/10/17 02:05:02;;;;;;;7.95;5.32;;;;;;;;;;5017382;28;20029;-82
2022/10/17 02:07:28;;;;;;;9.82;6.55;;;;;;;;;;5015532;28;20037;-82
2022/10/17 02:09:53;;;;;;;10.20;5.57;;;;;;;;;;5017030;28;20029;-82
2022/10/17 02:12:31;;;;;;;7.63;5.55;;;;;;;;;;5016009;28;20053;-82
2022/10/17 02:15:27;;;;;;;8.43;5.50;;;;;;;;;;5016392;28;20430;-82
2022/10/17 02:18:19;;;;;;;8.40;5.47;;;;;;;;;;5018209;28;20095;-82
2022/10/17 02:21:06;;;;;;;7.20;5.50;;;;;;;;;;5021944;28;20030;-82
2022/10/17 02:24:01;;;;;;;10.75;5.40;;;;;;;;;;5016773;28;22296;-82
2022/10/17 02:26:36;;;;;;;7.95;5.90;;;;;;;;;;5018582;28;20033;-82
2022/10/17 02:29:16;;;;;;;8.52;5.22;;;;;;;;;;5020658;28;20029;-82
2022/10/17 02:32:00;;;;;;;7.72;5.47;;;;;;;;;;5016993;28;20030;-82
2022/10/17 02:34:48;;;;;;;7.65;5.60;;;;;;;;;;5018832;28;20026;-82
2022/10/17 02:37:17;;;;;;;7.53;5.68;;;;;;;;;;5021206;28;21859;-83
2022/10/17 02:39:43;;;;;;;8.48;5.50;;;;;;;;;;5016287;28;20112;-83
2022/10/17 02:42:12;;;;;;;7.78;5.47;;;;;;;;;;5017971;28;20034;-82
2022/10/17 02:44:40;;;;;;;12.07;5.50;;;;;;;;;;5014649;28;20378;-82
2022/10/17 02:47:21;;;;;;;6.95;5.40;;;;;;;;;;5019436;28;20460;-82
2022/10/17 02:49:50;;;;;;;8.18;5.78;;;;;;;;;;5015277;28;20030;-82
2022/10/17 02:52:26;;;;;;;11.05;6.20;;;;;;;;;;5016141;28;20024;-82
2022/10/17 02:54:58;;;;;;;8.35;5.70;;;;;;;;;;5018709;28;20029;-82
2022/10/17 02:57:38;;;;;;;10.70;6.00;;;;;;;;;;5019950;28;20021;-82
2022/10/17 03:00:07;;;;;;;15.43;6.35;;;;;;;;;;5016796;28;20021;-82
2022/10/17 03:02:44;;;;;;;8.60;6.07;;;;;;;;;;5017279;28;20017;-82
2022/10/17 03:05:11;;;;;;;8.57;5.93;;;;;;;;;;5015998;28;20036;-82
2022/10/17 03:07:37;;;;;;;8.45;5.70;;;;;;;;;;5010397;28;20026;-82
2022/10/17 03:10:03;;;;;;;7.93;5.80;;;;;;;;;;5016675;28;20530;-82
2022/10/17 03:12:29;;;;;;;8.38;5.93;;;;;;;;;;5011868;28;20532;-82
2022/10/17 03:14:54;;;;;;;7.75;5.43;;;;;;;;;;5024805;28;20029;-82
2022/10/17 03:17:19;;;;;;;8.18;5.95;;;;;;;;;;5018548;28;20029;-82
2022/10/17 03:19:45;;;;;;;7.82;5.90;;;;;;;;;;5025971;28;20041;-82
2022/10/17 03:22:10;;;;;;;7.85;5.90;;;;;;;;;;5015966;28;20038;-82
2022/10/17 03:24:36;;;;;;;8.73;5.75;;;;;;;;;;5018060;28;20559;-82
2022/10/17 03:27:01;;;;;;;9.43;5.40;;;;;;;;;;5023433;28;20025;-82
2022/10/17 03:29:27;;;;;;;9.23;5.63;;;;;;;;;;5016078;28;20057;-82
2022/10/17 03:31:52;;;;;;;7.18;5.78;;;;;;;;;;5017778;28;20108;-82
2022/10/17 03:34:17;;;;;;;7.50;5.60;;;;;;;;;;5013649;28;20029;-82
2022/10/17 03:36:43;;;;;;;8.65;5.93;;;;;;;;;;5012728;28;20025;-82
2022/10/17 03:39:09;;;;;;;7.25;6.22;;;;;;;;;;5015346;28;20105;-82
2022/10/17 03:41:35;;;;;;;8.88;6.00;;;;;;;;;;5016902;28;20128;-82
2022/10/17 03:44:00;;;;;;;8.75;5.50;;;;;;;;;;5021099;28;20030;-82
2022/10/17 03:46:25;;;;;;;8.73;6.32;;;;;;;;;;5018552;28;21748;-82
2022/10/17 03:48:51;;;;;;;9.95;6.00;;;;;;;;;;5015216;28;20033;-82
2022/10/17 03:51:16;;;;;;;7.85;5.72;;;;;;;;;;5016649;28;20032;-82
2022/10/17 03:53:42;;;;;;;7.88;5.72;;;;;;;;;;5016069;28;20064;-82
2022/10/17 03:56:20;;;;;;;7.57;5.82;;;;;;;;;;5018733;28;20053;-82
2022/10/17 03:58:45;;;;;;;9.55;5.65;;;;;;;;;;5012979;28;20029;-83
2022/10/17 04:01:14;;;;;;;9.85;6.13;;;;;;;;;;5022027;28;20440;-82
2022/10/17 04:03:40;;;;;;;8.07;5.60;;;;;;;;;;5013597;28;20021;-82
2022/10/17 04:06:06;;;;;;;8.93;5.78;;;;;;;;;;5014726;28;20025;-82
2022/10/17 04:08:32;;;;;;;8.95;5.95;;;;;;;;;;5016289;28;20036;-82
2022/10/17 04:11:02;;;;;;;11.20;5.50;;;;;;;;;;5012394;28;20049;-82
2022/10/17 04:13:28;;;;;;;11.57;5.85;;;;;;;;;;5013327;28;20709;-82
2022/10/17 04:16:05;;;;;;;8.10;5.50;;;;;;;;;;5014783;28;20025;-82
2022/10/17 04:18:31;;;;;;;6.80;5.60;;;;;;;;;;5009949;28;20036;-82
2022/10/17 04:20:56;;;;;;;8.38;6.18;;;;;;;;;;5023754;28;20033;-82
2022/10/17 04:23:22;;;;;;;9.50;6.70;;;;;;;;;;5025327;28;20045;-82
2022/10/17 04:25:48;;;;;;;8.18;5.78;;;;;;;;;;5014668;28;20394;-82
2022/10/17 04:28:13;;;;;;;8.27;5.50;;;;;;;;;;5019267;28;20397;-83
2022/10/17 04:30:39;;;;;;;7.97;5.80;;;;;;;;;;5019741;28;20088;-82
2022/10/17 04:33:04;;;;;;;10.35;5.78;;;;;;;;;;5013368;28;20036;-83
2022/10/17 04:35:30;;;;;;;9.68;5.53;;;;;;;;;;5016208;28;20115;-82
2022/10/17 04:37:55;;;;;;;9.18;5.70;;;;;;;;;;5012777;28;20022;-82
2022/10/17 04:40:21;;;;;;;11.35;5.55;;;;;;;;;;5015952;28;20113;-82
2022/10/17 04:42:46;;;;;;;9.25;5.90;;;;;;;;;;5022134;28;20048;-82
2022/10/17 04:45:11;;;;;;;7.78;5.45;;;;;;;;;;5023726;28;20494;-82
2022/10/17 04:47:37;;;;;;;8.18;6.00;;;;;;;;;;5021808;28;20040;-82
2022/10/17 04:50:04;;;;;;;8.25;6.15;;;;;;;;;;5028127;28;20576;-82
2022/10/17 04:52:29;;;;;;;7.80;5.78;;;;;;;;;;5021704;28;20025;-82
2022/10/17 04:54:58;;;;;;;9.82;5.20;;;;;;;;;;5020874;28;20028;-82
2022/10/17 04:57:23;;;;;;;7.95;5.53;;;;;;;;;;5018278;28;20025;-82
2022/10/17 04:59:49;;;;;;;9.30;5.45;;;;;;;;;;5021219;28;20017;-82
2022/10/17 05:02:15;;;;;;;9.75;5.32;;;;;;;;;;5016453;28;20485;-82
2022/10/17 05:04:40;;;;;;;9.93;6.13;;;;;;;;;;5024168;28;20022;-82
2022/10/17 05:07:05;;;;;;;11.10;5.78;;;;;;;;;;5019330;28;20029;-82
2022/10/17 05:09:31;;;;;;;9.30;6.28;;;;;;;;;;5015709;28;20029;-82
2022/10/17 05:11:56;;;;;;;7.93;5.40;;;;;;;;;;5020783;28;20036;-82
2022/10/17 05:14:22;;;;;;;8.23;5.75;;;;;;;;;;5019803;28;20017;-82
2022/10/17 05:16:47;;;;;;;7.57;5.10;;;;;;;;;;5018335;28;20034;-82
2022/10/17 05:19:13;;;;;;;8.77;5.90;;;;;;;;;;5023352;28;20029;-82
2022/10/17 05:21:38;;;;;;;8.65;5.65;;;;;;;;;;5023154;28;20033;-82
2022/10/17 05:24:08;;;;;;;8.40;5.20;;;;;;;;;;5016102;28;20028;-82
2022/10/17 05:26:34;;;;;;;7.68;5.25;;;;;;;;;;5023552;28;20117;-82
2022/10/17 05:29:04;;;;;;;9.38;5.28;;;;;;;;;;5022773;28;20096;-82
2022/10/17 05:31:30;;;;;;;9.52;5.45;;;;;;;;;;5023007;28;20488;-82
2022/10/17 05:33:59;;;;;;;7.93;5.03;;;;;;;;;;5016810;28;20137;-82
2022/10/17 05:36:24;;;;;;;9.50;5.97;;;;;;;;;;5019507;28;20029;-83
2022/10/17 05:38:50;;;;;;;10.18;5.40;;;;;;;;;;5019218;28;20177;-82
2022/10/17 05:41:17;;;;;;;6.75;5.03;;;;;;;;;;5014837;28;20024;-84
2022/10/17 05:43:42;;;;;;;7.53;5.43;;;;;;;;;;5016432;28;20128;-84
2022/10/17 05:46:08;;;;;;;7.78;5.10;;;;;;;;;;5022592;28;20120;-83
2022/10/17 05:48:34;;;;;;;10.45;5.03;;;;;;;;;;5020221;28;20021;-84
2022/10/17 05:51:06;;;;;;;9.90;5.32;;;;;;;;;;5016265;28;20021;-83
2022/10/17 05:53:34;;;;;;;6.65;4.60;;;;;;;;;;5019431;28;20033;-83
2022/10/17 05:56:02;;;;;;;6.60;4.80;;;;;;;;;;5021989;28;20160;-84
2022/10/17 05:58:27;;;;;;;7.30;5.25;;;;;;;;;;5016255;28;20029;-83
2022/10/17 06:01:01;;;;;;;9.20;5.07;;;;;;;;;;5016579;28;20693;-83
2022/10/17 06:03:27;;;;;;;7.68;5.20;;;;;;;;;;5020383;28;20037;-83
2022/10/17 06:05:53;;;;;;;6.43;5.00;;;;;;;;;;5018386;28;20108;-84
2022/10/17 06:08:19;;;;;;;6.88;4.97;;;;;;;;;;5015811;28;20378;-83
2022/10/17 06:10:49;;;;;;;7.97;5.07;;;;;;;;;;5023947;28;20059;-83
2022/10/17 06:13:16;;;;;;;9.00;5.28;;;;;;;;;;5022536;28;20482;-83
2022/10/17 06:15:44;;;;;;;8.73;5.40;;;;;;;;;;5018739;28;20123;-84
2022/10/17 06:18:10;;;;;;;6.75;4.88;;;;;;;;;;5019343;28;20689;-84
2022/10/17 06:20:36;;;;;;;10.45;4.95;;;;;;;;;;5018426;28;20055;-83
2022/10/17 06:23:02;;;;;;;8.38;5.10;;;;;;;;;;5024354;28;20041;-83
2022/10/17 06:25:30;;;;;;;6.38;4.88;;;;;;;;;;5015511;28;20041;-84
2022/10/17 06:27:55;;;;;;;7.32;5.20;;;;;;;;;;5020618;28;20063;-83
2022/10/17 06:30:20;;;;;;;6.57;4.65;;;;;;;;;;5012502;28;20084;-83
2022/10/17 06:32:46;;;;;;;7.35;4.90;;;;;;;;;;5024018;28;20092;-83
2022/10/17 06:35:11;;;;;;;6.70;4.97;;;;;;;;;;5018289;28;20021;-83
2022/10/17 06:37:37;;;;;;;8.50;4.68;;;;;;;;;;5014604;28;20080;-83
2022/10/17 06:40:03;;;;;;;6.18;4.85;;;;;;;;;;5022711;28;20041;-84
2022/10/17 06:42:28;;;;;;;8.57;5.00;;;;;;;;;;5019806;28;20425;-84
2022/10/17 06:44:54;;;;;;;7.00;5.10;;;;;;;;;;5013174;28;20030;-84
2022/10/17 06:47:19;;;;;;;6.40;4.53;;;;;;;;;;5012631;28;20034;-84
2022/10/17 06:49:44;;;;;;;5.88;4.55;;;;;;;;;;5019152;28;20025;-84
2022/10/17 06:52:10;;;;;;;6.95;4.95;;;;;;;;;;5020888;28;20052;-84
2022/10/17 06:54:35;;;;;;;7.45;5.20;;;;;;;;;;5017348;28;20036;-84
2022/10/17 06:57:01;;;;;;;7.78;5.05;;;;;;;;;;5017276;28;20041;-83
2022/10/17 06:59:26;;;;;;;9.45;5.22;;;;;;;;;;5018674;28;20389;-84
2022/10/17 07:01:51;;;;;;;7.65;5.03;;;;;;;;;;5008852;28;20040;-84
2022/10/17 07:04:17;;;;;;;7.60;5.55;;;;;;;;;;5015941;28;20101;-84
2022/10/17 07:06:42;;;;;;;9.32;5.25;;;;;;;;;;5021106;28;20038;-84
2022/10/17 07:09:08;;;;;;;8.45;5.00;;;;;;;;;;5018819;28;20498;-84
2022/10/17 07:11:34;;;;;;;7.53;4.95;;;;;;;;;;5022856;28;20090;-84
2022/10/17 07:13:59;;;;;;;7.25;5.50;;;;;;;;;;5020432;28;20024;-83
2022/10/17 07:16:25;;;;;;;7.68;5.82;;;;;;;;;;5017300;28;20572;-84
2022/10/17 07:18:51;;;;;;;6.65;4.82;;;;;;;;;;5016958;28;20038;-83
2022/10/17 07:21:16;;;;;;;7.97;5.53;;;;;;;;;;5020959;28;20494;-84
2022/10/17 07:23:42;;;;;;;7.40;4.93;;;;;;;;;;5024081;28;20099;-84
2022/10/17 07:26:10;;;;;;;8.80;5.25;;;;;;;;;;5025138;28;20485;-84
2022/10/17 07:28:38;;;;;;;7.55;5.20;;;;;;;;;;5008367;28;20049;-83
2022/10/17 07:31:06;;;;;;;7.70;5.50;;;;;;;;;;5019530;28;20034;-84
2022/10/17 07:33:31;;;;;;;12.30;5.32;;;;;;;;;;5028792;28;20028;-83
2022/10/17 07:35:59;;;;;;;10.25;5.38;;;;;;;;;;5025886;28;20131;-84
2022/10/17 07:38:24;;;;;;;10.32;5.30;;;;;;;;;;5017507;28;20035;-84
2022/10/17 07:40:57;;;;;;;8.55;5.70;;;;;;;;;;5018799;28;20659;-84
2022/10/17 07:43:23;;;;;;;8.68;4.97;;;;;;;;;;5018749;28;20086;-83
2022/10/17 07:45:49;;;;;;;8.57;5.85;;;;;;;;;;5015171;28;20397;-83
2022/10/17 07:48:14;;;;;;;7.70;5.32;;;;;;;;;;5023796;28;20029;-83
2022/10/17 07:50:40;;;;;;;10.68;5.22;;;;;;;;;;5017023;28;20144;-84
2022/10/17 07:53:05;;;;;;;7.75;4.95;;;;;;;;;;5017252;28;20034;-84
2022/10/17 07:55:30;;;;;;;7.82;5.20;;;;;;;;;;5020941;28;20111;-83
2022/10/17 07:57:56;;;;;;;8.80;5.38;;;;;;;;;;5018908;28;20159;-84
2022/10/17 08:00:21;;;;;;;7.82;5.20;;;;;;;;;;5017121;28;20385;-84
2022/10/17 08:02:47;;;;;;;9.15;4.95;;;;;;;;;;5020270;28;20028;-83
2022/10/17 08:05:12;;;;;;;7.50;4.78;;;;;;;;;;5022080;28;20512;-83
2022/10/17 08:07:39;;;;;;;9.63;5.32;;;;;;;;;;5022123;28;20623;-83
2022/10/17 08:10:05;;;;;;;9.73;5.20;;;;;;;;;;5022099;28;20390;-83
2022/10/17 08:12:33;;;;;;;8.30;4.60;;;;;;;;;;5013669;28;20029;-82
2022/10/17 08:15:01;;;;;;;7.32;4.53;;;;;;;;;;5021378;28;20405;-82
2022/10/17 08:17:27;;;;;;;8.30;4.65;;;;;;;;;;5021803;28;20037;-83
2022/10/17 08:19:52;;;;;;;7.63;4.75;;;;;;;;;;5026297;28;20037;-82
2022/10/17 08:22:18;;;;;;;7.18;4.80;;;;;;;;;;5022067;28;20049;-83
2022/10/17 08:24:45;;;;;;;9.18;4.65;;;;;;;;;;5017478;28;20401;-83
2022/10/17 08:27:12;;;;;;;8.15;4.78;;;;;;;;;;5019793;28;20117;-83
2022/10/17 08:29:40;;;;;;;9.40;4.43;;;;;;;;;;5027201;28;20055;-83
2022/10/17 08:32:08;;;;;;;9.75;4.80;;;;;;;;;;5027428;28;20496;-82
2022/10/17 08:34:33;;;;;;;9.68;4.28;;;;;;;;;;5028086;28;20025;-82
2022/10/17 08:36:59;;;;;;;9.10;4.20;;;;;;;;;;5014419;28;20039;-82
2022/10/17 08:39:24;;;;;;;7.28;4.13;;;;;;;;;;5018109;28;20033;-82
2022/10/17 08:42:31;;;;;;;8.43;4.13;;;;;;;;;;5014359;28;20565;-83
2022/10/17 08:45:30;;;;;;;8.63;4.10;;;;;;;;;;5026315;28;20041;-85
2022/10/17 08:47:59;;;;;;;5.93;4.00;;;;;;;;;;5015189;28;20032;-84
2022/10/17 08:50:30;;;;;;;6.97;4.00;;;;;;;;;;5019071;28;20056;-84
2022/10/17 08:53:26;;;;;;;6.97;3.60;;;;;;;;;;5015399;28;20033;-84
2022/10/17 08:55:53;;;;;;;6.43;3.97;;;;;;;;;;5020394;28;20413;-84
2022/10/17 08:58:21;;;;;;;6.10;4.32;;;;;;;;;;5019836;28;20490;-85
2022/10/17 09:00:58;;;;;;;9.98;4.20;;;;;;;;;;5022762;28;20399;-85
2022/10/17 09:03:49;;;;;;;6.55;4.00;;;;;;;;;;5024656;28;20496;-85
2022/10/17 09:06:24;;;;;;;6.40;4.07;;;;;;;;;;5021073;28;20032;-84
2022/10/17 09:08:52;;;;;;;5.97;3.80;;;;;;;;;;5021246;28;20036;-85
2022/10/17 09:11:30;;;;;;;7.05;3.67;;;;;;;;;;5025409;28;20240;-84
2022/10/17 09:14:13;;;;;;;5.60;3.60;;;;;;;;;;5024709;28;20045;-84
2022/10/17 09:17:02;;;;;;;6.68;3.75;;;;;;;;;;5021450;28;20029;-84
2022/10/17 09:19:32;;;;;;;6.70;4.35;;;;;;;;;;5018505;28;20037;-83
2022/10/17 09:22:07;;;;;;;7.22;4.60;;;;;;;;;;5031703;28;20041;-83
2022/10/17 09:24:33;;;;;;;8.57;4.53;;;;;;;;;;5013659;28;20088;-84
2022/10/17 09:26:59;;;;;;;9.43;4.60;;;;;;;;;;5018502;28;20025;-83
2022/10/17 09:29:25;;;;;;;7.03;4.40;;;;;;;;;;5019932;28;20040;-83
2022/10/17 09:32:16;;;;;;;7.30;4.35;;;;;;;;;;5015749;28;20055;-83
2022/10/17 09:34:41;;;;;;;7.35;4.55;;;;;;;;;;5018679;28;20575;-83
2022/10/17 09:37:13;;;;;;;9.18;5.05;;;;;;;;;;5026274;28;20029;-83
2022/10/17 09:39:40;;;;;;;7.50;4.32;;;;;;;;;;5021027;28;20117;-84
2022/10/17 09:42:13;;;;;;;7.05;4.57;;;;;;;;;;5023407;28;20034;-84
2022/10/17 09:44:54;;;;;;;6.15;4.25;;;;;;;;;;5018575;28;20076;-84
2022/10/17 09:47:58;;;;;;;6.85;4.10;;;;;;;;;;5018437;28;20038;-84
2022/10/17 09:50:27;;;;;;;5.70;4.13;;;;;;;;;;5020018;28;20176;-84
2022/10/17 09:52:54;;;;;;;8.43;4.47;;;;;;;;;;5017774;28;20053;-84
2022/10/17 09:55:24;;;;;;;7.63;4.07;;;;;;;;;;5020734;28;20504;-84
2022/10/17 09:57:52;;;;;;;6.28;4.10;;;;;;;;;;5026542;28;20082;-84
2022/10/17 10:00:31;;;;;;;6.55;4.03;;;;;;;;;;5017879;28;20036;-84
2022/10/17 10:03:14;;;;;;;5.70;4.15;;;;;;;;;;5016807;28;20077;-84
2022/10/17 10:05:41;;;;;;;6.88;3.83;;;;;;;;;;5015344;28;20482;-84
2022/10/17 10:08:17;;;;;;;8.00;4.15;;;;;;;;;;5016408;28;20113;-84
2022/10/17 10:10:43;;;;;;;5.22;3.58;;;;;;;;;;5019184;28;20120;-84
2022/10/17 10:13:12;;;;;;;5.65;4.05;;;;;;;;;;5019800;28;20061;-84
2022/10/17 10:15:40;;;;;;;6.43;3.60;;;;;;;;;;5019063;28;20057;-84
2022/10/17 10:18:35;;;;;;;5.28;3.40;;;;;;;;;;5015031;28;20060;-84
2022/10/17 10:21:06;;;;;;;8.38;3.60;;;;;;;;;;5024714;28;20029;-84
2022/10/17 10:23:32;;;;;;;6.43;3.80;;;;;;;;;;5029107;28;20521;-85
2022/10/17 10:26:00;;;;;;;5.72;3.35;;;;;;;;;;5025238;28;20026;-85
2022/10/17 10:28:29;;;;;;;4.85;3.70;;;;;;;;;;5021439;28;20474;-85
2022/10/17 10:30:58;;;;;;;6.88;3.50;;;;;;;;;;5022757;28;20117;-85
2022/10/17 10:33:27;;;;;;;10.27;4.00;;;;;;;;;;5021815;28;20034;-85
2022/10/17 10:36:00;;;;;;;5.07;3.78;;;;;;;;;;5022887;28;20237;-85
2022/10/17 10:38:26;;;;;;;;;;;;;;;;;;5032709;28;20523;-85
2022/10/17 10:40:54;;;;;;;8.38;4.15;;;;;;;;;;5028058;28;19964;-85
2022/10/17 10:43:42;;;;;;;6.50;4.32;;;;;;;;;;5020702;28;20079;-85
2022/10/17 10:46:27;;;;;;;5.80;4.13;;;;;;;;;;5016714;28;20064;-85
2022/10/17 10:48:59;;;;;;;9.93;4.47;;;;;;;;;;5020111;28;20021;-85
2022/10/17 10:51:30;;;;;;;5.93;4.13;;;;;;;;;;5025916;28;20034;-85
2022/10/17 10:54:04;;;;;;;7.55;4.40;;;;;;;;;;5020286;28;20138;-85
2022/10/17 10:56:42;;;;;;;5.45;4.10;;;;;;;;;;5019513;28;20119;-85
2022/10/17 10:59:08;;;;;;;8.75;4.30;;;;;;;;;;5021453;28;20021;-85
2022/10/17 11:01:52;;;;;;;6.85;4.28;;;;;;;;;;5017628;28;20029;-85
2022/10/17 11:04:20;;;;;;;6.32;4.05;;;;;;;;;;5021018;28;20037;-85
2022/10/17 11:06:48;;;;;;;8.00;4.22;;;;;;;;;;5017261;28;20394;-85
2022/10/17 11:09:59;;;;;;;7.57;4.10;;;;;;;;;;5021175;28;20505;-85
2022/10/17 11:13:06;;;;;;;8.93;4.25;;;;;;;;;;5023191;28;20026;-85
2022/10/17 11:15:43;;;;;;;7.68;4.05;;;;;;;;;;5019469;28;20052;-85
2022/10/17 11:18:27;;;;;;;8.70;4.40;;;;;;;;;;5024970;28;20124;-85
2022/10/17 11:20:57;;;;;;;5.35;3.80;;;;;;;;;;5023939;28;20119;-85
2022/10/17 11:23:53;;;;;;;7.97;4.50;;;;;;;;;;5024904;28;20111;-85
2022/10/17 11:26:28;;;;;;;5.50;4.10;;;;;;;;;;5022338;28;20120;-85
2022/10/17 11:28:55;;;;;;;8.38;3.80;;;;;;;;;;5023805;28;20029;-86
2022/10/17 11:31:24;;;;;;;5.47;3.95;;;;;;;;;;5020281;28;20033;-85
2022/10/17 11:34:08;;;;;;;8.27;4.53;;;;;;;;;;5018702;28;20026;-85
2022/10/17 11:36:39;;;;;;;6.35;4.15;;;;;;;;;;5010466;28;20091;-85
2022/10/17 11:39:10;;;;;;;6.28;4.15;;;;;;;;;;5017879;28;20033;-86
2022/10/17 11:41:45;;;;;;;8.70;4.60;;;;;;;;;;5020777;28;20041;-85
2022/10/17 11:44:24;;;;;;;8.00;4.40;;;;;;;;;;5015465;28;20720;-85
2022/10/17 11:47:05;;;;;;;6.82;4.63;;;;;;;;;;5017398;28;20073;-85
2022/10/17 11:49:37;;;;;;;7.68;4.53;;;;;;;;;;5019468;28;20186;-86
2022/10/17 11:52:26;;;;;;;7.65;4.28;;;;;;;;;;5015240;28;20025;-86
2022/10/17 11:55:00;;;;;;;6.15;4.05;;;;;;;;;;5031524;28;20053;-85
2022/10/17 11:57:54;;;;;;;7.38;4.57;;;;;;;;;;5023946;28;20548;-85
2022/10/17 12:00:44;;;;;;;9.32;4.65;;;;;;;;;;5014297;28;20121;-86
2022/10/17 12:03:10;;;;;;;7.72;4.75;;;;;;;;;;5018098;28;20437;-85
2022/10/17 12:05:56;;;;;;;10.68;5.00;;;;;;;;;;5017258;28;20021;-86
2022/10/17 12:08:40;;;;;;;8.88;5.30;;;;;;;;;;5013776;28;20458;-85
2022/10/17 12:11:33;;;;;;;7.88;4.95;;;;;;;;;;5012195;28;20564;-85
2022/10/17 12:13:59;;;;;;;7.85;5.10;;;;;;;;;;5020683;28;20021;-85
2022/10/17 12:16:27;;;;;;;8.13;5.55;;;;;;;;;;5021985;28;20398;-86
2022/10/17 12:18:59;;;;;;;8.73;5.38;;;;;;;;;;5029901;28;20395;-85
2022/10/17 12:21:24;;;;;;;9.77;4.97;;;;;;;;;;5025716;28;20036;-85
2022/10/17 12:23:52;;;;;;;8.93;5.35;;;;;;;;;;5022867;28;20363;-85
2022/10/17 12:26:28;;;;;;;7.95;5.05;;;;;;;;;;5025046;28;20057;-85
2022/10/17 12:28:55;;;;;;;6.63;5.25;;;;;;;;;;5026580;28;20029;-85
2022/10/17 12:31:26;;;;;;;9.27;5.45;;;;;;;;;;5015525;28;20088;-85
2022/10/17 12:34:03;;;;;;;7.10;5.50;;;;;;;;;;5022987;28;20026;-85
2022/10/17 12:36:28;;;;;;;9.90;5.68;;;;;;;;;;5020704;28;20038;-85
2022/10/17 12:39:00;;;;;;;8.55;6.18;;;;;;;;;;5022112;28;20386;-85
2022/10/17 12:41:37;;;;;;;7.38;5.70;;;;;;;;;;5024213;28;20034;-85
2022/10/17 12:44:12;;;;;;;8.43;5.75;;;;;;;;;;5028212;28;20026;-85
2022/10/17 12:46:43;;;;;;;7.25;5.60;;;;;;;;;;5024836;28;20036;-85
2022/10/17 12:49:37;;;;;;;9.05;5.55;;;;;;;;;;5028462;28;20553;-85
2022/10/17 12:52:15;;;;;;;8.68;5.22;;;;;;;;;;5020738;28;20458;-85
2022/10/17 12:55:09;;;;;;;7.55;5.43;;;;;;;;;;5022211;28;20041;-85
2022/10/17 12:58:00;;;;;;;7.53;5.60;;;;;;;;;;5017928;28;20030;-84
2022/10/17 13:00:32;;;;;;;9.93;5.78;;;;;;;;;;5031671;28;20040;-84
2022/10/17 13:03:08;;;;;;;8.25;6.07;;;;;;;;;;5033112;28;20025;-85
2022/10/17 13:05:36;;;;;;;7.65;5.82;;;;;;;;;;5022334;28;20068;-85
2022/10/17 13:08:05;;;;;;;6.60;5.15;;;;;;;;;;5024721;28;20030;-85
2022/10/17 13:10:37;;;;;;;10.05;6.38;;;;;;;;;;5028514;28;20037;-85
2022/10/17 13:13:13;;;;;;;8.73;5.90;;;;;;;;;;5018752;28;20906;-85
2022/10/17 13:15:38;;;;;;;8.70;5.53;;;;;;;;;;5023212;28;20029;-84
2022/10/17 13:18:04;;;;;;;10.13;5.53;;;;;;;;;;5027792;28;20026;-85
2022/10/17 13:20:31;;;;;;;9.40;5.70;;;;;;;;;;5020404;28;20030;-85
2022/10/17 13:22:56;;;;;;;8.30;5.90;;;;;;;;;;5018669;28;20494;-84
2022/10/17 13:25:23;;;;;;;9.48;6.57;;;;;;;;;;5020406;28;20034;-84
2022/10/17 13:27:49;;;;;;;10.32;6.38;;;;;;;;;;5015883;28;20467;-84
2022/10/17 13:30:28;;;;;;;8.57;6.35;;;;;;;;;;5018611;28;20036;-85
2022/10/17 13:32:54;;;;;;;9.80;6.10;;;;;;;;;;5021170;28;20029;-84
2022/10/17 13:35:37;;;;;;;7.40;6.00;;;;;;;;;;5021953;28;20104;-84
2022/10/17 13:38:06;;;;;;;8.48;5.88;;;;;;;;;;5014856;28;20029;-85
2022/10/17 13:40:40;;;;;;;9.05;6.47;;;;;;;;;;5019469;28;20511;-86
2022/10/17 13:43:16;;;;;;;8.00;6.38;;;;;;;;;;5031093;28;20400;-86
2022/10/17 13:45:53;;;;;;;9.80;6.18;;;;;;;;;;5019267;28;20087;-85
2022/10/17 13:48:26;;;;;;;9.55;6.20;;;;;;;;;;5023169;28;20037;-86
2022/10/17 13:50:52;;;;;;;;;;;;;;;;;;5020710;28;20061;-86
2022/10/17 13:53:19;;;;;;;11.50;7.05;;;;;;;;;;5024829;28;19920;-86
2022/10/17 13:55:52;;;;;;;9.32;7.03;;;;;;;;;;5017495;28;20028;-85
2022/10/17 13:58:18;;;;;;;12.18;7.13;;;;;;;;;;5024548;28;20497;-85
2022/10/17 14:00:44;;;;;;;10.52;7.15;;;;;;;;;;5016795;28;20026;-85
2022/10/17 14:03:10;;;;;;;11.65;7.07;;;;;;;;;;5021636;28;20029;-85
2022/10/17 14:06:00;;;;;;;9.75;6.88;;;;;;;;;;5019508;28;20030;-85
2022/10/17 14:08:26;;;;;;;10.25;6.65;;;;;;;;;;5024065;28;20528;-85
2022/10/17 14:10:52;;;;;;;12.38;7.50;;;;;;;;;;5020392;28;20480;-85
2022/10/17 14:13:32;;;;;;;9.73;7.30;;;;;;;;;;5025597;28;20797;-85
2022/10/17 14:16:01;;;;;;;12.23;7.93;;;;;;;;;;5021654;28;20033;-86
2022/10/17 14:18:33;;;;;;;9.88;7.43;;;;;;;;;;5015878;28;20489;-86
2022/10/17 14:21:00;;;;;;;9.50;7.53;;;;;;;;;;5018076;28;20485;-86
2022/10/17 14:23:38;;;;;;;11.85;8.07;;;;;;;;;;5020676;28;20073;-85
2022/10/17 14:26:21;;;;;;;11.05;8.10;;;;;;;;;;5017763;28;20041;-85
2022/10/17 14:29:01;;;;;;;13.73;8.35;;;;;;;;;;5025210;28;20040;-85
2022/10/17 14:31:33;;;;;;;11.38;8.07;;;;;;;;;;5022798;28;20063;-86
2022/10/17 14:34:01;;;;;;;11.77;9.25;;;;;;;;;;5024903;28;20469;-86
2022/10/17 14:36:49;;;;;;;10.65;8.43;;;;;;;;;;5020656;28;20064;-85
2022/10/17 14:39:21;;;;;;;9.90;7.72;;;;;;;;;;5027912;28;20091;-85
2022/10/17 14:41:47;;;;;;;13.48;8.75;;;;;;;;;;5022420;28;20049;-85
2022/10/17 14:44:36;;;;;;;11.27;8.80;;;;;;;;;;5022138;28;20029;-85
2022/10/17 14:47:03;;;;;;;12.00;8.73;;;;;;;;;;5019266;28;20057;-85
2022/10/17 14:49:39;;;;;;;11.52;9.05;;;;;;;;;;5012820;28;20026;-85
2022/10/17 14:52:13;;;;;;;14.02;9.30;;;;;;;;;;5024208;28;21251;-85
2022/10/17 14:54:43;;;;;;;15.30;9.43;;;;;;;;;;5014188;28;20546;-86
2022/10/17 14:57:16;;;;;;;13.02;9.70;;;;;;;;;;5027267;28;20362;-86
2022/10/17 14:59:42;;;;;;;12.27;9.07;;;;;;;;;;5022212;28;20025;-85
2022/10/17 15:02:08;;;;;;;10.93;9.40;;;;;;;;;;5019990;28;20021;-85
2022/10/17 15:04:33;;;;;;;13.85;9.63;;;;;;;;;;5015701;28;20083;-85